createdAt,value
2018-11-12T00:00:15.541Z,9.90
2018-11-12T00:02:45.051Z,9.90
2018-11-12T00:05:13.356Z,10.00
2018-11-12T00:07:41.712Z,10.10
2018-11-12T00:10:10.077Z,10.00
2018-11-12T00:12:38.272Z,10.10
2018-11-12T00:15:07.367Z,10.00
2018-11-12T00:17:35.333Z,10.00
2018-11-12T00:20:03.509Z,9.90
2018-11-12T00:22:31.478Z,9.90
2018-11-12T00:25:01.120Z,10.00
2018-11-12T00:27:29.573Z,10.00
2018-11-12T00:29:57.471Z,10.20
2018-11-12T00:32:25.414Z,10.20
2018-11-12T00:34:53.523Z,10.30
2018-11-12T00:37:21.418Z,10.20
2018-11-12T00:39:49.618Z,10.30
2018-11-12T00:42:17.549Z,10.30
2018-11-12T00:44:45.596Z,10.40
2018-11-12T00:47:13.809Z,10.40
2018-11-12T00:49:42.327Z,10.40
2018-11-12T00:52:10.210Z,10.40
2018-11-12T00:54:38.141Z,10.40
2018-11-12T00:57:06.175Z,10.40
2018-11-12T00:59:34.036Z,10.40
2018-11-12T01:02:02.202Z,10.40
2018-11-12T01:04:30.119Z,10.40
2018-11-12T01:06:58.626Z,10.30
2018-11-12T01:09:26.780Z,10.30
2018-11-12T01:11:55.403Z,10.30
2018-11-12T01:14:23.371Z,10.40
2018-11-12T01:16:51.275Z,10.50
2018-11-12T01:19:19.239Z,10.50
2018-11-12T01:21:47.353Z,10.60
2018-11-12T01:24:15.427Z,10.50
2018-11-12T01:26:43.357Z,10.50
2018-11-12T01:29:11.385Z,10.60
2018-11-12T01:31:39.304Z,10.60
2018-11-12T01:34:07.378Z,10.60
2018-11-12T01:36:35.747Z,10.60
2018-11-12T01:39:05.958Z,10.50
2018-11-12T01:41:33.946Z,10.50
2018-11-12T01:44:01.985Z,10.40
2018-11-12T01:46:29.917Z,10.50
2018-11-12T01:48:57.855Z,10.50
2018-11-12T01:51:25.769Z,10.50
2018-11-12T01:53:54.145Z,10.50
2018-11-12T01:56:22.197Z,10.60
2018-11-12T01:58:50.124Z,10.50
2018-11-12T02:01:18.623Z,10.30
2018-11-12T02:03:47.851Z,10.20
2018-11-12T02:06:16.034Z,10.30
2018-11-12T02:08:44.106Z,10.40
2018-11-12T02:11:12.969Z,10.40
2018-11-12T02:13:42.608Z,10.30
2018-11-12T02:16:11.071Z,10.30
2018-11-12T02:18:39.928Z,10.30
2018-11-12T02:21:08.758Z,10.30
2018-11-12T02:23:37.018Z,10.20
2018-11-12T02:26:05.273Z,10.20
2018-11-12T02:28:33.448Z,10.30
2018-11-12T02:31:01.364Z,10.20
2018-11-12T02:33:29.331Z,10.30
2018-11-12T02:35:57.237Z,10.30
2018-11-12T02:38:25.274Z,10.30
2018-11-12T02:40:53.210Z,10.30
2018-11-12T02:43:21.144Z,10.30
2018-11-12T02:45:49.051Z,10.30
2018-11-12T02:48:17.591Z,10.30
2018-11-12T02:50:45.590Z,10.30
2018-11-12T02:53:13.602Z,10.30
2018-11-12T02:55:41.519Z,10.30
2018-11-12T02:58:09.472Z,10.40
2018-11-12T03:00:37.405Z,10.40
2018-11-12T03:03:05.514Z,10.40
2018-11-12T03:05:33.930Z,10.30
2018-11-12T03:08:02.445Z,10.30
2018-11-12T03:10:30.396Z,10.20
2018-11-12T03:12:58.863Z,10.20
2018-11-12T03:15:26.766Z,10.30
2018-11-12T03:17:55.322Z,10.00
2018-11-12T03:20:23.659Z,10.20
2018-11-12T03:22:51.871Z,10.00
2018-11-12T03:25:21.472Z,10.20
2018-11-12T03:27:50.333Z,10.10
2018-11-12T03:30:19.645Z,10.10
2018-11-12T03:32:48.319Z,10.10
2018-11-12T03:35:16.495Z,10.10
2018-11-12T03:37:45.581Z,10.10
2018-11-12T03:40:16.016Z,10.10
2018-11-12T03:42:44.632Z,10.10
2018-11-12T03:45:15.226Z,10.00
2018-11-12T03:47:44.247Z,10.10
2018-11-12T03:50:14.283Z,9.90
2018-11-12T03:52:42.511Z,10.00
2018-11-12T03:55:14.721Z,10.10
2018-11-12T03:57:42.772Z,10.10
2018-11-12T04:00:13.449Z,10.20
2018-11-12T04:02:42.588Z,10.30
2018-11-12T04:05:10.962Z,10.30
2018-11-12T04:07:39.644Z,10.40
2018-11-12T04:10:10.929Z,10.30
2018-11-12T04:12:39.339Z,10.20
2018-11-12T04:15:09.323Z,10.40
2018-11-12T04:17:37.481Z,10.30
2018-11-12T04:20:06.541Z,10.30
2018-11-12T04:22:34.677Z,10.30
2018-11-12T04:25:03.376Z,10.30
2018-11-12T04:27:31.243Z,10.20
2018-11-12T04:29:59.158Z,10.30
2018-11-12T04:32:27.989Z,10.20
2018-11-12T04:34:57.018Z,10.10
2018-11-12T04:37:24.921Z,10.00
2018-11-12T04:39:53.527Z,10.10
2018-11-12T04:42:21.725Z,10.30
2018-11-12T04:44:49.668Z,10.20
2018-11-12T04:47:17.626Z,10.10
2018-11-12T04:49:45.539Z,10.20
2018-11-12T04:52:13.555Z,10.00
2018-11-12T04:54:41.498Z,10.20
2018-11-12T04:57:09.388Z,10.10
2018-11-12T04:59:37.297Z,10.00
2018-11-12T05:02:06.183Z,10.10
2018-11-12T05:04:34.577Z,10.10
2018-11-12T05:07:02.502Z,10.10
2018-11-12T05:09:35.999Z,9.90
2018-11-12T05:12:04.205Z,9.80
2018-11-12T05:14:32.162Z,9.90
2018-11-12T05:17:00.323Z,10.00
2018-11-12T05:19:28.561Z,10.00
2018-11-12T05:21:57.078Z,10.10
2018-11-12T05:24:25.737Z,10.10
2018-11-12T05:26:53.640Z,10.10
2018-11-12T05:29:21.945Z,10.20
2018-11-12T05:31:49.842Z,10.00
2018-11-12T05:34:17.759Z,10.00
2018-11-12T05:36:46.219Z,10.10
2018-11-12T05:39:14.333Z,10.20
2018-11-12T05:41:42.284Z,10.00
2018-11-12T05:44:10.576Z,9.80
2018-11-12T05:46:38.548Z,9.40
2018-11-12T05:49:06.614Z,9.50
2018-11-12T05:51:34.589Z,9.30
2018-11-12T05:54:04.791Z,9.60
2018-11-12T05:56:32.785Z,9.90
2018-11-12T05:59:00.866Z,10.10
2018-11-12T06:01:28.719Z,10.10
2018-11-12T06:03:57.269Z,10.20
2018-11-12T06:06:25.394Z,10.10
2018-11-12T06:08:54.007Z,9.80
2018-11-12T06:11:21.916Z,10.00
2018-11-12T06:13:49.958Z,10.10
2018-11-12T06:16:18.374Z,10.20
2018-11-12T06:18:46.339Z,10.00
2018-11-12T06:21:14.263Z,10.00
2018-11-12T06:23:42.909Z,10.00
2018-11-12T06:26:10.933Z,10.00
2018-11-12T06:28:39.098Z,10.20
2018-11-12T06:31:07.126Z,10.10
2018-11-12T06:33:35.010Z,10.00
2018-11-12T06:36:03.056Z,10.20
2018-11-12T06:38:31.146Z,10.20
2018-11-12T06:40:59.340Z,10.00
2018-11-12T06:43:27.223Z,10.00
2018-11-12T06:45:55.157Z,10.20
2018-11-12T06:48:23.943Z,10.10
2018-11-12T06:50:51.817Z,10.20
2018-11-12T06:53:20.043Z,10.30
2018-11-12T06:55:48.648Z,10.10
2018-11-12T06:58:16.926Z,10.10
2018-11-12T07:00:45.008Z,10.20
2018-11-12T07:03:14.653Z,10.00
2018-11-12T07:05:42.587Z,10.00
2018-11-12T07:08:10.506Z,9.90
2018-11-12T07:10:39.684Z,10.10
2018-11-12T07:13:07.652Z,10.10
2018-11-12T07:15:35.597Z,10.20
2018-11-12T07:18:03.593Z,10.30
2018-11-12T07:20:32.851Z,10.40
2018-11-12T07:23:00.848Z,10.40
2018-11-12T07:25:30.432Z,10.50
2018-11-12T07:27:59.081Z,10.60
2018-11-12T07:30:27.944Z,10.40
2018-11-12T07:32:57.381Z,10.20
2018-11-12T07:35:25.775Z,10.30
2018-11-12T07:37:54.704Z,10.00
2018-11-12T07:40:23.505Z,10.00
2018-11-12T07:42:51.418Z,9.60
2018-11-12T07:45:21.507Z,9.70
2018-11-12T07:47:50.401Z,10.00
2018-11-12T07:50:19.793Z,10.20
2018-11-12T07:52:47.926Z,10.40
2018-11-12T07:55:19.458Z,10.30
2018-11-12T07:57:52.398Z,10.40
2018-11-12T08:00:22.917Z,10.40
2018-11-12T08:02:54.838Z,10.50
2018-11-12T08:05:23.402Z,10.50
2018-11-12T08:07:51.487Z,10.20
2018-11-12T08:10:20.643Z,10.20
2018-11-12T08:12:48.861Z,10.00
2018-11-12T08:15:18.368Z,9.90
2018-11-12T08:17:47.265Z,9.40
2018-11-12T08:20:16.617Z,9.40
2018-11-12T08:22:46.616Z,9.70
2018-11-12T08:25:20.634Z,10.00
2018-11-12T08:27:49.443Z,10.20
2018-11-12T08:30:25.950Z,10.20
2018-11-12T08:32:55.587Z,10.20
2018-11-12T08:35:25.880Z,9.80
2018-11-12T08:37:54.410Z,9.60
2018-11-12T08:40:30.010Z,9.40
2018-11-12T08:42:59.772Z,9.50
2018-11-12T08:45:27.685Z,9.70
2018-11-12T08:47:56.247Z,9.90
2018-11-12T08:50:25.511Z,10.20
2018-11-12T08:52:54.394Z,10.50
2018-11-12T08:55:26.029Z,10.50
2018-11-12T08:57:55.454Z,10.60
2018-11-12T09:00:24.360Z,10.60
2018-11-12T09:02:52.344Z,10.70
2018-11-12T09:05:21.678Z,10.50
2018-11-12T09:07:52.069Z,10.30
2018-11-12T09:10:24.056Z,10.30
2018-11-12T09:12:52.749Z,10.40
2018-11-12T09:15:21.235Z,10.40
2018-11-12T09:17:49.587Z,10.40
2018-11-12T09:20:21.935Z,10.30
2018-11-12T09:22:50.222Z,10.40
2018-11-12T09:25:26.073Z,10.50
2018-11-12T09:27:55.672Z,10.40
2018-11-12T09:30:25.788Z,10.40
2018-11-12T09:32:54.878Z,10.40
2018-11-12T09:35:24.749Z,10.00
2018-11-12T09:37:55.623Z,9.60
2018-11-12T09:40:32.513Z,9.70
2018-11-12T09:43:03.294Z,10.00
2018-11-12T09:45:31.488Z,9.80
2018-11-12T09:47:59.748Z,9.90
2018-11-12T09:50:29.377Z,9.60
2018-11-12T09:53:00.220Z,9.80
2018-11-12T09:55:32.258Z,9.80
2018-11-12T09:58:06.277Z,9.80
2018-11-12T10:00:35.592Z,10.00
2018-11-12T10:03:06.063Z,9.80
2018-11-12T10:05:35.780Z,9.70
2018-11-12T10:08:10.641Z,9.80
2018-11-12T10:13:25.557Z,10.00
2018-11-12T10:15:53.186Z,9.90
2018-11-12T10:18:19.472Z,9.70
2018-11-12T10:20:47.721Z,9.60
2018-11-12T10:23:16.024Z,9.70
2018-11-12T10:25:45.078Z,9.70
2018-11-12T10:28:19.018Z,9.70
2018-11-12T10:30:47.202Z,9.60
2018-11-12T10:33:15.142Z,9.80
2018-11-12T10:35:45.641Z,9.90
2018-11-12T10:38:15.342Z,10.20
2018-11-12T10:43:28.723Z,9.80
2018-11-12T10:45:57.478Z,9.70
2018-11-12T10:48:25.560Z,10.00
2018-11-12T10:51:04.594Z,10.20
2018-11-12T10:53:22.632Z,10.30
2018-11-12T10:55:50.938Z,10.40
2018-11-12T10:58:18.987Z,10.60
2018-11-12T11:00:52.926Z,10.50
2018-11-12T11:03:31.226Z,10.70
2018-11-12T11:05:59.628Z,10.70
2018-11-12T11:08:28.468Z,10.70
2018-11-12T11:10:56.594Z,10.60
2018-11-12T11:13:24.709Z,10.50
2018-11-12T11:15:53.129Z,10.30
2018-11-12T11:18:21.061Z,10.20
2018-11-12T11:20:49.834Z,10.40
2018-11-12T11:23:17.850Z,10.30
2018-11-12T11:25:51.759Z,10.40
2018-11-12T11:28:20.769Z,10.10
2018-11-12T11:30:48.842Z,10.20
2018-11-12T11:33:17.479Z,10.30
2018-11-12T11:35:46.003Z,10.40
2018-11-12T11:38:14.073Z,10.40
2018-11-12T11:40:52.675Z,10.50
2018-11-12T11:43:26.898Z,10.60
2018-11-12T11:45:55.345Z,10.70
2018-11-12T11:48:23.385Z,10.40
2018-11-12T11:50:52.480Z,10.10
2018-11-12T11:53:20.686Z,10.00
2018-11-12T11:56:04.626Z,10.00
2018-11-12T11:58:33.493Z,10.10
2018-11-12T12:01:05.720Z,10.40
2018-11-12T12:03:33.720Z,10.30
2018-11-12T12:06:02.697Z,10.00
2018-11-12T12:08:30.728Z,10.10
2018-11-12T12:11:00.481Z,9.80
2018-11-12T12:13:30.135Z,9.90
2018-11-12T12:15:59.009Z,9.90
2018-11-12T12:18:27.699Z,9.80
2018-11-12T12:20:56.320Z,9.90
2018-11-12T12:23:24.763Z,9.90
2018-11-12T12:28:35.666Z,10.10
2018-11-12T12:31:07.293Z,10.10
2018-11-12T12:33:35.261Z,9.90
2018-11-12T12:36:04.156Z,9.50
2018-11-12T12:38:33.897Z,9.70
2018-11-12T12:41:11.183Z,9.60
2018-11-12T12:43:39.732Z,9.70
2018-11-12T12:46:07.745Z,9.80
2018-11-12T12:48:36.191Z,9.60
2018-11-12T12:51:05.596Z,9.50
2018-11-12T12:53:34.400Z,9.80
2018-11-12T12:56:11.946Z,9.90
2018-11-12T12:58:40.358Z,9.80
2018-11-12T13:01:09.896Z,9.80
2018-11-12T13:03:38.031Z,9.80
2018-11-12T13:06:06.267Z,9.90
2018-11-12T13:08:34.549Z,10.20
2018-11-12T13:11:13.671Z,10.30
2018-11-12T13:13:41.904Z,10.30
2018-11-12T13:16:09.911Z,10.30
2018-11-12T13:18:37.909Z,10.30
2018-11-12T13:21:06.353Z,10.20
2018-11-12T13:23:35.151Z,9.80
2018-11-12T13:26:12.724Z,10.10
2018-11-12T13:28:42.603Z,10.10
2018-11-12T13:31:10.993Z,10.20
2018-11-12T13:33:40.140Z,9.90
2018-11-12T13:36:08.327Z,9.60
2018-11-12T13:38:36.514Z,9.70
2018-11-12T13:41:13.033Z,9.80
2018-11-12T13:43:41.353Z,9.50
2018-11-12T13:46:09.617Z,9.50
2018-11-12T13:48:37.641Z,9.60
2018-11-12T13:51:06.814Z,9.90
2018-11-12T13:53:35.466Z,10.00
2018-11-12T13:56:03.505Z,10.30
2018-11-12T13:58:31.495Z,10.20
2018-11-12T14:00:59.543Z,10.30
2018-11-12T14:03:27.661Z,10.20
2018-11-12T14:05:56.208Z,10.10
2018-11-12T14:08:24.317Z,9.50
2018-11-12T14:10:55.159Z,9.10
2018-11-12T14:13:25.401Z,9.30
2018-11-12T14:15:54.484Z,9.40
2018-11-12T14:18:24.657Z,9.20
2018-11-12T14:20:53.677Z,8.80
2018-11-12T14:23:21.939Z,9.00
2018-11-12T14:25:56.514Z,9.30
2018-11-12T14:28:25.461Z,9.40
2018-11-12T14:30:53.400Z,9.20
2018-11-12T14:33:21.517Z,9.40
2018-11-12T14:35:49.465Z,9.80
2018-11-12T14:38:18.332Z,9.90
2018-11-12T14:40:47.023Z,10.00
2018-11-12T14:43:16.053Z,9.80
2018-11-12T14:45:44.077Z,9.40
2018-11-12T14:48:12.676Z,9.60
2018-11-12T14:50:40.781Z,9.80
2018-11-12T14:53:08.962Z,10.10
2018-11-12T14:55:44.318Z,10.20
2018-11-12T14:58:12.445Z,10.30
2018-11-12T15:00:40.653Z,10.30
2018-11-12T15:03:09.288Z,10.40
2018-11-12T15:05:37.348Z,10.50
2018-11-12T15:08:05.864Z,10.40
2018-11-12T15:10:41.043Z,10.50
2018-11-12T15:13:09.494Z,10.50
2018-11-12T15:15:38.326Z,10.50
2018-11-12T15:18:07.392Z,10.50
2018-11-12T15:20:35.501Z,10.50
2018-11-12T15:23:04.489Z,10.70
2018-11-12T15:28:16.314Z,10.70
2018-11-12T15:30:44.459Z,10.80
2018-11-12T15:33:12.924Z,10.80
2018-11-12T15:35:41.576Z,10.90
2018-11-12T15:38:09.909Z,11.00
2018-11-12T15:40:44.365Z,10.90
2018-11-12T15:43:13.016Z,10.80
2018-11-12T15:45:41.032Z,10.80
2018-11-12T15:48:09.009Z,10.50
2018-11-12T15:50:38.202Z,10.60
2018-11-12T15:53:08.755Z,10.70
2018-11-12T15:58:14.054Z,10.70
2018-11-12T16:00:44.585Z,10.60
2018-11-12T16:03:12.762Z,10.70
2018-11-12T16:05:41.234Z,10.80
2018-11-12T16:08:09.680Z,10.80
2018-11-12T16:10:50.939Z,10.80
2018-11-12T16:13:23.490Z,10.70
2018-11-12T16:15:51.972Z,10.80
2018-11-12T16:18:20.073Z,10.90
2018-11-12T16:20:48.929Z,11.00
2018-11-12T16:23:17.477Z,10.90
2018-11-12T16:25:53.005Z,11.00
2018-11-12T16:28:22.152Z,11.00
2018-11-12T16:30:51.221Z,11.00
2018-11-12T16:33:19.781Z,11.10
2018-11-12T16:35:47.910Z,11.00
2018-11-12T16:38:16.333Z,11.10
2018-11-12T16:40:51.360Z,11.20
2018-11-12T16:43:26.050Z,11.20
2018-11-12T16:45:54.973Z,11.20
2018-11-12T16:48:23.285Z,11.10
2018-11-12T16:50:51.904Z,11.00
2018-11-12T16:53:20.557Z,11.00
2018-11-12T16:55:55.533Z,11.10
2018-11-12T16:58:24.879Z,11.00
2018-11-12T17:00:53.879Z,11.00
2018-11-12T17:03:23.225Z,11.10
2018-11-12T17:05:51.493Z,11.10
2018-11-12T17:08:19.854Z,11.10
2018-11-12T17:13:36.133Z,11.20
2018-11-12T17:16:05.878Z,11.20
2018-11-12T17:18:36.309Z,11.20
2018-11-12T17:21:09.983Z,11.20
2018-11-12T17:23:39.519Z,11.10
2018-11-12T17:26:07.881Z,11.20
2018-11-12T17:28:43.433Z,11.20
2018-11-12T17:31:13.435Z,11.30
2018-11-12T17:33:43.120Z,11.30
2018-11-12T17:36:12.193Z,11.20
2018-11-12T17:38:41.645Z,11.20
2018-11-12T17:43:57.449Z,11.30
2018-11-12T17:46:27.250Z,11.20
2018-11-12T17:48:56.723Z,11.20
2018-11-12T17:51:28.385Z,11.30
2018-11-12T17:53:57.980Z,11.40
2018-11-12T17:56:34.288Z,11.30
2018-11-12T17:59:05.705Z,11.30
2018-11-12T18:01:36.692Z,11.30
2018-11-12T18:04:06.981Z,11.20
2018-11-12T18:06:36.404Z,11.20
2018-11-12T18:09:12.901Z,11.20
2018-11-12T18:11:42.041Z,11.30
2018-11-12T18:14:11.737Z,11.20
2018-11-12T18:16:42.465Z,11.10
2018-11-12T18:19:10.530Z,11.20
2018-11-12T18:21:51.865Z,11.30
2018-11-12T18:24:20.393Z,11.20
2018-11-12T18:26:49.081Z,11.10
2018-11-12T18:29:22.529Z,11.10
2018-11-12T18:31:54.275Z,11.10
2018-11-12T18:34:23.256Z,11.10
2018-11-12T18:36:52.535Z,11.20
2018-11-12T18:39:22.992Z,10.90
2018-11-12T18:41:55.655Z,11.00
2018-11-12T18:46:59.001Z,11.30
2018-11-12T18:49:37.471Z,11.20
2018-11-12T18:54:49.517Z,11.40
2018-11-12T18:57:18.170Z,11.30
2018-11-12T18:59:48.527Z,11.40
2018-11-12T19:02:19.935Z,11.30
2018-11-12T19:04:49.398Z,11.30
2018-11-12T19:07:22.598Z,11.30
2018-11-12T19:09:54.697Z,11.40
2018-11-12T19:12:23.461Z,11.50
2018-11-12T19:14:57.418Z,11.40
2018-11-12T19:17:31.655Z,11.30
2018-11-12T19:20:05.621Z,11.50
2018-11-12T19:22:39.942Z,11.60
2018-11-12T19:25:11.440Z,11.50
2018-11-12T19:27:40.624Z,11.60
2018-11-12T19:30:23.659Z,11.60
2018-11-12T19:32:53.041Z,11.50
2018-11-12T19:35:26.391Z,11.60
2018-11-12T19:37:55.386Z,11.60
2018-11-12T19:40:24.650Z,11.60
2018-11-12T19:42:59.528Z,11.70
2018-11-12T19:48:13.182Z,11.50
2018-11-12T19:50:42.616Z,11.50
2018-11-12T19:53:18.866Z,11.40
2018-11-12T19:58:47.637Z,11.50
2018-11-12T20:01:24.504Z,11.40
2018-11-12T20:03:53.386Z,11.50
2018-11-12T20:06:23.438Z,11.40
2018-11-12T20:08:53.736Z,11.40
2018-11-12T20:11:22.748Z,11.50
2018-11-12T20:13:53.121Z,11.40
2018-11-12T20:16:21.442Z,11.40
2018-11-12T20:18:57.037Z,11.40
2018-11-12T20:21:29.163Z,11.40
2018-11-12T20:23:57.934Z,11.50
2018-11-12T20:26:32.081Z,11.50
2018-11-12T20:29:02.120Z,11.50
2018-11-12T20:31:31.966Z,11.40
2018-11-12T20:34:05.488Z,11.40
2018-11-12T20:36:35.260Z,11.50
2018-11-12T20:39:13.694Z,11.40
2018-11-12T20:41:56.776Z,11.40
2018-11-12T20:47:06.674Z,11.30
2018-11-12T20:49:34.702Z,11.30
2018-11-12T20:52:07.331Z,11.30
2018-11-12T20:54:41.506Z,11.20
2018-11-12T20:57:10.239Z,11.20
2018-11-12T21:02:14.208Z,11.30
2018-11-12T21:04:45.812Z,11.20
2018-11-12T21:07:13.989Z,11.20
2018-11-12T21:12:22.522Z,11.20
2018-11-12T21:17:31.482Z,11.30
2018-11-12T21:20:04.250Z,11.30
2018-11-12T21:22:36.418Z,11.30
2018-11-12T21:25:10.959Z,11.40
2018-11-12T21:27:39.838Z,11.40
2018-11-12T21:30:12.564Z,11.40
2018-11-12T21:32:41.234Z,11.40
2018-11-12T21:35:10.213Z,11.40
2018-11-12T21:37:38.415Z,11.40
2018-11-12T21:40:12.812Z,11.50
2018-11-12T21:42:41.855Z,11.50
2018-11-12T21:45:12.313Z,11.60
2018-11-12T21:47:41.041Z,11.50
2018-11-12T21:50:11.739Z,11.50
2018-11-12T21:52:40.439Z,11.50
2018-11-12T21:55:10.150Z,11.60
2018-11-12T21:57:39.271Z,11.50
2018-11-12T22:00:16.346Z,11.60
2018-11-12T22:02:45.476Z,11.60
2018-11-12T22:05:14.305Z,11.60
2018-11-12T22:07:42.512Z,11.50
2018-11-12T22:10:12.702Z,11.30
2018-11-12T22:12:42.133Z,11.40
2018-11-12T22:15:11.024Z,11.50
2018-11-12T22:17:39.349Z,11.50
2018-11-12T22:20:09.071Z,11.40
2018-11-12T22:22:38.140Z,11.20
2018-11-12T22:25:08.437Z,11.20
2018-11-12T22:27:36.650Z,11.30
2018-11-12T22:30:06.186Z,11.30
2018-11-12T22:32:34.572Z,11.30
2018-11-12T22:35:04.921Z,11.20
2018-11-12T22:37:32.949Z,11.20
2018-11-12T22:40:00.854Z,11.10
2018-11-12T22:42:29.210Z,11.10
2018-11-12T22:44:57.556Z,11.00
2018-11-12T22:47:26.397Z,11.10
2018-11-12T22:49:54.342Z,11.10
2018-11-12T22:52:22.273Z,11.10
2018-11-12T22:54:50.288Z,11.20
2018-11-12T22:57:18.557Z,11.30
2018-11-12T22:59:47.265Z,11.10
2018-11-12T23:02:15.305Z,11.20
2018-11-12T23:04:43.237Z,11.20
2018-11-12T23:07:11.248Z,11.00
2018-11-12T23:09:39.202Z,10.90
2018-11-12T23:12:07.776Z,10.90
2018-11-12T23:14:35.804Z,10.90
2018-11-12T23:17:03.916Z,10.90
2018-11-12T23:19:31.942Z,11.00
2018-11-12T23:22:01.043Z,11.10
2018-11-12T23:24:28.975Z,11.00
2018-11-12T23:26:56.953Z,11.10
2018-11-12T23:29:25.025Z,11.20
2018-11-12T23:31:52.917Z,11.30
2018-11-12T23:34:21.478Z,11.20
2018-11-12T23:36:49.556Z,11.00
2018-11-12T23:39:17.744Z,11.00
2018-11-12T23:41:45.642Z,11.00
2018-11-12T23:44:13.662Z,11.20
2018-11-12T23:46:42.340Z,11.10
2018-11-12T23:49:10.857Z,11.10
2018-11-12T23:51:39.154Z,11.20
2018-11-12T23:54:07.364Z,11.10
2018-11-12T23:56:35.303Z,11.10
2018-11-12T23:59:04.624Z,11.20
